Time;durP1;ratioP1;P1;durP2;ratioP2;P2;SDS_P1;SDS_P2;PMS_P1;PMS_P2;Temp;Humidity;BMP_temperature;BMP_pressure;BME280_temperature;BME280_humidity;BME280_pressure;Samples;Min_cycle;Max_cycle;Signal;HPM_P1;HPM_P2
2024/01/07 00:01:02;;;;;;;27.40;18.23;;;1.20;99.90;;;;;;5025524;28;21626;-65
2024/01/07 00:03:27;;;;;;;27.88;19.65;;;1.20;99.90;;;;;;5026131;28;20457;-65
2024/01/07 00:05:53;;;;;;;21.23;17.10;;;1.20;99.90;;;;;;5033461;28;20075;-65
2024/01/07 00:08:19;;;;;;;28.40;20.35;;;1.20;99.90;;;;;;5019743;28;20045;-66
2024/01/07 00:10:44;;;;;;;27.43;19.63;;;1.20;99.90;;;;;;5026318;28;20034;-64
2024/01/07 00:13:10;;;;;;;31.10;19.93;;;1.20;99.90;;;;;;5025039;28;20516;-63
2024/01/07 00:15:35;;;;;;;29.60;18.80;;;1.20;99.90;;;;;;5028565;28;20095;-63
2024/01/07 00:18:01;;;;;;;25.23;19.00;;;1.20;99.90;;;;;;5020373;28;20034;-63
2024/01/07 00:20:27;;;;;;;28.35;18.92;;;1.20;99.90;;;;;;5022243;28;20073;-64
2024/01/07 00:22:52;;;;;;;26.80;19.43;;;1.20;99.90;;;;;;5020115;28;20038;-63
2024/01/07 00:25:18;;;;;;;22.57;18.03;;;1.20;99.90;;;;;;5024287;28;20095;-64
2024/01/07 00:27:44;;;;;;;24.20;18.63;;;1.20;99.90;;;;;;5029293;28;20248;-63
2024/01/07 00:30:10;;;;;;;20.75;16.48;;;1.10;99.90;;;;;;5029902;28;20074;-63
2024/01/07 00:32:36;;;;;;;27.17;18.33;;;1.10;99.90;;;;;;5031099;28;20094;-63
2024/01/07 00:35:02;;;;;;;26.43;18.97;;;1.10;99.90;;;;;;5031072;28;20545;-64
2024/01/07 00:37:28;;;;;;;27.58;18.00;;;1.10;99.90;;;;;;5026430;28;20042;-63
2024/01/07 00:39:54;;;;;;;22.87;17.07;;;1.10;99.90;;;;;;5030923;28;20041;-63
2024/01/07 00:42:19;;;;;;;23.03;18.00;;;1.10;99.90;;;;;;5030439;28;20033;-63
2024/01/07 00:44:45;;;;;;;25.57;16.60;;;1.10;99.90;;;;;;5029916;28;20486;-63
2024/01/07 00:47:10;;;;;;;22.13;16.57;;;1.10;99.90;;;;;;5029122;28;20050;-63
2024/01/07 00:49:36;;;;;;;19.87;16.60;;;1.10;99.90;;;;;;5028844;28;20041;-64
2024/01/07 00:52:01;;;;;;;25.50;16.87;;;1.10;99.90;;;;;;5023986;28;20371;-63
2024/01/07 00:54:27;;;;;;;19.93;15.07;;;1.10;99.90;;;;;;5025585;28;20175;-63
2024/01/07 00:56:53;;;;;;;23.77;15.57;;;1.10;99.90;;;;;;5030971;28;20029;-63
2024/01/07 00:59:18;;;;;;;18.30;13.97;;;1.10;99.90;;;;;;5040043;28;20481;-63
2024/01/07 01:01:44;;;;;;;17.70;14.20;;;1.00;99.90;;;;;;5046739;28;20048;-63
2024/01/07 01:04:09;;;;;;;18.17;14.40;;;1.00;99.90;;;;;;5023757;28;20493;-62
2024/01/07 01:06:35;;;;;;;22.33;14.13;;;1.00;99.90;;;;;;5029397;28;20078;-62
2024/01/07 01:09:00;;;;;;;21.10;14.70;;;1.00;99.90;;;;;;5031016;28;20111;-63
2024/01/07 01:11:26;;;;;;;17.80;13.57;;;1.00;99.90;;;;;;5045593;28;20041;-63
2024/01/07 01:13:52;;;;;;;16.53;12.90;;;1.00;99.90;;;;;;5032189;28;20033;-63
2024/01/07 01:16:17;;;;;;;16.70;12.13;;;1.00;99.90;;;;;;5029945;28;20072;-63
2024/01/07 01:18:43;;;;;;;17.73;12.05;;;1.00;99.90;;;;;;5030364;28;20037;-63
2024/01/07 01:21:09;;;;;;;18.98;13.48;;;1.00;99.90;;;;;;5029739;28;20124;-63
2024/01/07 01:23:35;;;;;;;15.82;11.57;;;1.00;99.90;;;;;;5027571;28;20530;-62
2024/01/07 01:26:00;;;;;;;18.93;13.03;;;1.00;99.90;;;;;;5028691;28;20029;-63
2024/01/07 01:28:26;;;;;;;16.20;12.13;;;1.00;99.90;;;;;;5025758;28;20250;-63
2024/01/07 01:30:52;;;;;;;13.43;11.90;;;1.00;99.90;;;;;;5028359;28;20120;-63
2024/01/07 01:33:17;;;;;;;14.07;11.37;;;1.00;99.90;;;;;;5031425;28;20052;-63
2024/01/07 01:35:43;;;;;;;14.53;11.57;;;1.00;99.90;;;;;;5027081;28;20277;-63
2024/01/07 01:38:09;;;;;;;16.45;11.02;;;1.00;99.90;;;;;;5022499;28;20466;-63
2024/01/07 01:40:35;;;;;;;15.03;11.57;;;1.00;99.90;;;;;;5027345;28;20255;-63
2024/01/07 01:43:00;;;;;;;15.73;11.63;;;0.90;99.90;;;;;;5019991;28;20768;-63
2024/01/07 01:45:26;;;;;;;15.40;11.00;;;0.90;99.90;;;;;;5027137;28;20439;-63
2024/01/07 01:47:51;;;;;;;15.67;12.00;;;1.00;99.90;;;;;;5016444;28;20300;-63
2024/01/07 01:50:17;;;;;;;15.60;11.53;;;0.90;99.90;;;;;;5022947;28;20089;-63
2024/01/07 01:52:45;;;;;;;16.63;12.98;;;1.00;99.90;;;;;;5029902;28;20280;-63
2024/01/07 01:55:11;;;;;;;20.33;12.23;;;1.00;99.90;;;;;;5029297;28;20492;-63
2024/01/07 01:57:40;;;;;;;14.70;11.73;;;1.00;99.90;;;;;;5023809;28;20046;-64
2024/01/07 02:00:06;;;;;;;17.17;12.32;;;1.00;99.90;;;;;;5019040;28;20061;-64
2024/01/07 02:02:34;;;;;;;14.27;10.75;;;1.00;99.90;;;;;;5029417;28;20037;-64
2024/01/07 02:05:03;;;;;;;18.10;11.70;;;0.90;99.90;;;;;;5028998;28;20033;-63
2024/01/07 02:07:30;;;;;;;18.33;12.63;;;1.00;99.90;;;;;;5028316;28;20560;-63
2024/01/07 02:09:56;;;;;;;14.95;11.52;;;0.90;99.90;;;;;;5029456;28;20394;-64
2024/01/07 02:12:22;;;;;;;18.23;12.00;;;0.90;99.90;;;;;;5021829;28;20038;-63
2024/01/07 02:14:47;;;;;;;15.68;11.10;;;0.90;99.90;;;;;;5009469;28;20050;-64
2024/01/07 02:17:14;;;;;;;17.43;12.77;;;0.90;99.90;;;;;;5021788;28;20080;-63
2024/01/07 02:19:40;;;;;;;16.55;10.85;;;0.90;99.90;;;;;;5044044;28;20037;-63
2024/01/07 02:22:06;;;;;;;14.30;11.03;;;0.90;99.90;;;;;;5025326;28;20041;-63
2024/01/07 02:24:32;;;;;;;13.87;11.17;;;0.90;99.90;;;;;;5009413;28;20116;-64
2024/01/07 02:27:02;;;;;;;17.00;11.43;;;1.00;99.90;;;;;;5011316;28;20029;-63
2024/01/07 02:29:28;;;;;;;15.23;11.77;;;0.90;99.90;;;;;;5009184;28;20046;-64
2024/01/07 02:31:53;;;;;;;16.33;11.75;;;1.00;99.90;;;;;;5014050;28;20065;-63
2024/01/07 02:34:19;;;;;;;15.97;11.77;;;1.00;99.90;;;;;;5015440;28;20045;-64
2024/01/07 02:36:44;;;;;;;16.97;12.17;;;1.00;99.90;;;;;;5027178;28;20033;-62
2024/01/07 02:39:10;;;;;;;17.13;12.63;;;1.00;99.90;;;;;;5009145;28;20505;-63
2024/01/07 02:41:36;;;;;;;21.60;14.30;;;1.00;99.90;;;;;;5011326;28;20129;-63
2024/01/07 02:44:01;;;;;;;15.03;12.73;;;1.00;99.90;;;;;;5018285;28;20045;-64
2024/01/07 02:46:27;;;;;;;13.70;11.20;;;1.00;99.90;;;;;;5008155;28;20072;-63
2024/01/07 02:48:52;;;;;;;19.43;11.90;;;1.00;99.90;;;;;;5016013;28;20046;-63
2024/01/07 02:51:18;;;;;;;14.53;10.90;;;1.00;99.90;;;;;;5009345;28;20473;-64
2024/01/07 02:53:44;;;;;;;16.27;11.10;;;0.90;99.90;;;;;;5013258;28;20053;-63
2024/01/07 02:56:10;;;;;;;12.10;10.33;;;0.90;99.90;;;;;;5009196;28;20030;-63
2024/01/07 02:58:36;;;;;;;12.50;9.90;;;0.90;99.90;;;;;;5012126;28;20592;-63
2024/01/07 03:01:01;;;;;;;13.50;9.57;;;0.90;99.90;;;;;;5009205;28;20042;-63
2024/01/07 03:03:27;;;;;;;12.82;9.90;;;0.90;99.90;;;;;;5020323;28;20128;-64
2024/01/07 03:05:53;;;;;;;12.93;9.63;;;0.90;99.90;;;;;;5029043;28;20618;-63
2024/01/07 03:08:18;;;;;;;10.33;9.23;;;0.90;99.90;;;;;;5028205;28;20046;-63
2024/01/07 03:10:44;;;;;;;14.23;11.30;;;0.90;99.90;;;;;;5028827;28;20453;-63
2024/01/07 03:13:10;;;;;;;13.32;11.02;;;0.80;99.90;;;;;;5027117;28;20044;-63
2024/01/07 03:15:37;;;;;;;16.88;11.90;;;0.90;99.90;;;;;;5028601;28;20435;-63
2024/01/07 03:18:03;;;;;;;15.23;10.85;;;0.80;99.90;;;;;;5029630;28;20049;-63
2024/01/07 03:20:29;;;;;;;14.50;11.27;;;0.80;99.90;;;;;;5008441;28;20048;-63
2024/01/07 03:22:55;;;;;;;14.27;11.60;;;0.90;99.90;;;;;;5010448;28;20042;-63
2024/01/07 03:25:20;;;;;;;17.30;11.50;;;0.90;99.90;;;;;;5011135;28;20149;-63
2024/01/07 03:27:46;;;;;;;16.77;12.13;;;0.90;99.90;;;;;;5010849;28;20041;-63
2024/01/07 03:30:12;;;;;;;16.03;11.27;;;0.90;99.90;;;;;;5015024;28;20036;-64
2024/01/07 03:32:37;;;;;;;21.17;12.70;;;0.80;99.90;;;;;;5010871;28;20053;-63
2024/01/07 03:35:03;;;;;;;13.93;11.57;;;0.80;99.90;;;;;;5028186;28;20044;-63
2024/01/07 03:37:29;;;;;;;17.17;12.50;;;0.80;99.90;;;;;;5031812;28;20557;-63
2024/01/07 03:39:54;;;;;;;15.50;11.93;;;0.90;99.90;;;;;;5033439;28;20041;-63
2024/01/07 03:42:20;;;;;;;15.77;11.83;;;0.80;99.90;;;;;;5031052;28;20076;-64
2024/01/07 03:44:46;;;;;;;17.10;11.77;;;0.80;99.90;;;;;;5021921;28;20518;-63
2024/01/07 03:47:11;;;;;;;16.13;11.33;;;0.80;99.90;;;;;;5022884;28;20033;-63
2024/01/07 03:49:37;;;;;;;14.20;12.03;;;0.80;99.90;;;;;;5032166;28;20033;-63
2024/01/07 03:52:06;;;;;;;17.35;12.93;;;0.80;99.90;;;;;;5023412;28;20084;-64
2024/01/07 03:54:32;;;;;;;13.05;11.57;;;0.80;99.90;;;;;;5017985;28;20044;-64
2024/01/07 03:56:58;;;;;;;15.17;12.47;;;0.80;99.90;;;;;;5031623;28;20444;-63
2024/01/07 03:59:25;;;;;;;15.77;13.23;;;0.80;99.90;;;;;;5031703;28;20077;-63
2024/01/07 04:01:53;;;;;;;15.65;12.20;;;0.80;99.90;;;;;;5011878;28;20092;-63
2024/01/07 04:04:18;;;;;;;15.70;11.80;;;0.80;99.90;;;;;;5023671;28;20069;-64
2024/01/07 04:06:44;;;;;;;13.73;11.47;;;0.80;99.90;;;;;;5014218;28;20480;-62
2024/01/07 04:09:09;;;;;;;15.15;11.90;;;0.80;99.90;;;;;;5010264;28;20509;-62
2024/01/07 04:11:42;;;;;;;17.00;12.47;;;0.70;99.90;;;;;;5038013;28;20038;-63
2024/01/07 04:14:08;;;;;;;17.27;12.68;;;0.70;99.90;;;;;;5011223;28;20052;-62
2024/01/07 04:16:35;;;;;;;16.95;12.60;;;0.70;99.90;;;;;;5028538;28;20489;-63
2024/01/07 04:19:00;;;;;;;15.73;12.60;;;0.70;99.90;;;;;;5031299;28;20091;-63
2024/01/07 04:21:26;;;;;;;17.57;12.87;;;0.70;99.90;;;;;;5047716;28;20045;-63
2024/01/07 04:23:51;;;;;;;17.27;12.73;;;0.70;99.90;;;;;;5030008;28;20285;-63
2024/01/07 04:26:17;;;;;;;11.90;10.57;;;0.60;99.90;;;;;;5022266;28;20038;-63
2024/01/07 04:28:43;;;;;;;15.90;12.30;;;0.70;99.90;;;;;;5010588;28;20045;-63
2024/01/07 04:31:09;;;;;;;19.50;12.52;;;0.70;99.90;;;;;;5015716;28;20437;-63
2024/01/07 04:33:34;;;;;;;14.60;10.97;;;0.60;99.90;;;;;;5016820;28;20034;-63
2024/01/07 04:36:00;;;;;;;13.30;10.73;;;0.60;99.90;;;;;;5027678;28;20092;-64
2024/01/07 04:38:29;;;;;;;16.38;11.63;;;0.60;99.90;;;;;;5010838;28;20046;-63
2024/01/07 04:40:55;;;;;;;17.58;12.20;;;0.60;99.90;;;;;;5025275;28;20091;-63
2024/01/07 04:43:20;;;;;;;14.93;11.93;;;0.60;99.90;;;;;;5014288;28;20092;-62
2024/01/07 04:45:46;;;;;;;16.00;12.63;;;0.60;99.90;;;;;;5013009;28;20069;-63
2024/01/07 04:48:13;;;;;;;13.07;11.55;;;0.60;99.90;;;;;;5027284;28;20038;-63
2024/01/07 04:50:41;;;;;;;13.27;9.65;;;0.60;99.90;;;;;;5021374;28;20405;-63
2024/01/07 04:53:08;;;;;;;14.63;9.60;;;0.60;99.90;;;;;;5024744;28;20525;-64
2024/01/07 04:55:33;;;;;;;14.00;9.55;;;0.60;99.90;;;;;;5027828;28;20064;-63
2024/01/07 04:57:59;;;;;;;9.18;8.13;;;0.50;99.90;;;;;;5031356;28;20041;-63
2024/01/07 05:00:25;;;;;;;11.15;8.27;;;0.50;99.90;;;;;;5023721;28;20068;-64
2024/01/07 05:02:51;;;;;;;10.07;8.40;;;0.50;99.90;;;;;;5019269;28;20120;-63
2024/01/07 05:05:16;;;;;;;12.27;10.05;;;0.50;99.90;;;;;;5010602;28;20084;-63
2024/01/07 05:07:42;;;;;;;15.53;11.07;;;0.50;99.90;;;;;;5022066;28;20046;-63
2024/01/07 05:10:08;;;;;;;18.57;13.40;;;0.50;99.90;;;;;;5010873;28;20037;-64
2024/01/07 05:12:33;;;;;;;14.20;11.27;;;0.50;99.90;;;;;;5026946;28;20121;-63
2024/01/07 05:14:59;;;;;;;15.13;12.30;;;0.50;99.90;;;;;;5030628;28;20037;-63
2024/01/07 05:17:25;;;;;;;15.88;12.27;;;0.50;99.90;;;;;;5027978;28;20041;-62
2024/01/07 05:19:51;;;;;;;21.20;14.13;;;0.50;99.90;;;;;;5010553;28;20040;-63
2024/01/07 05:22:16;;;;;;;14.93;11.80;;;0.50;99.90;;;;;;5016329;28;20041;-63
2024/01/07 05:24:42;;;;;;;15.90;11.70;;;0.50;99.90;;;;;;5010298;28;20038;-63
2024/01/07 05:27:08;;;;;;;12.17;10.83;;;0.50;99.90;;;;;;5009794;28;20055;-63
2024/01/07 05:29:34;;;;;;;13.73;9.38;;;0.50;99.90;;;;;;5011753;28;20037;-63
2024/01/07 05:32:00;;;;;;;8.77;7.80;;;0.40;99.90;;;;;;5010820;28;20323;-63
2024/01/07 05:34:27;;;;;;;9.02;7.35;;;0.40;99.90;;;;;;5029326;28;20120;-63
2024/01/07 05:36:53;;;;;;;11.48;7.78;;;0.40;99.90;;;;;;5030045;28;20037;-63
2024/01/07 05:39:18;;;;;;;14.77;7.83;;;0.40;99.90;;;;;;5022006;28;20038;-64
2024/01/07 05:41:44;;;;;;;12.77;7.63;;;0.40;99.90;;;;;;5011915;28;20041;-63
2024/01/07 05:44:09;;;;;;;11.10;8.50;;;0.30;99.90;;;;;;5020593;28;20034;-64
2024/01/07 05:46:39;;;;;;;13.13;9.30;;;0.40;99.90;;;;;;5005193;28;20054;-64
2024/01/07 05:49:05;;;;;;;12.63;8.38;;;0.30;99.90;;;;;;5022771;28;20048;-63
2024/01/07 05:51:31;;;;;;;13.10;8.30;;;0.40;99.90;;;;;;5029468;28;20037;-63
2024/01/07 05:53:56;;;;;;;10.20;8.27;;;0.40;99.90;;;;;;5026916;28;20030;-63
2024/01/07 05:56:22;;;;;;;10.57;8.10;;;0.30;99.90;;;;;;5019546;28;20044;-64
2024/01/07 05:58:48;;;;;;;11.90;8.77;;;0.40;99.90;;;;;;5021478;28;20033;-63
2024/01/07 06:01:21;;;;;;;14.53;9.20;;;0.30;99.90;;;;;;5021092;28;20042;-63
2024/01/07 06:03:47;;;;;;;12.55;8.18;;;0.40;99.90;;;;;;5024847;28;20046;-63
2024/01/07 06:06:14;;;;;;;9.55;7.95;;;0.30;99.90;;;;;;5029436;28;20060;-63
2024/01/07 06:08:41;;;;;;;16.15;9.32;;;0.30;99.90;;;;;;5027541;28;20045;-63
2024/01/07 06:11:07;;;;;;;10.70;6.85;;;0.30;99.90;;;;;;5009892;28;20044;-63
2024/01/07 06:13:32;;;;;;;10.87;7.57;;;0.30;99.90;;;;;;5009127;28;20136;-63
2024/01/07 06:15:58;;;;;;;8.27;6.43;;;0.30;99.90;;;;;;5010188;28;20037;-63
2024/01/07 06:18:23;;;;;;;10.60;7.27;;;0.30;99.90;;;;;;5028951;28;20112;-63
2024/01/07 06:20:49;;;;;;;8.93;6.03;;;0.30;99.90;;;;;;5030387;28;20053;-63
2024/01/07 06:23:15;;;;;;;9.63;5.90;;;0.30;99.90;;;;;;5028908;28;20064;-63
2024/01/07 06:25:40;;;;;;;7.40;5.07;;;0.30;99.90;;;;;;5028368;28;20045;-63
2024/01/07 06:28:06;;;;;;;8.70;5.47;;;0.30;99.90;;;;;;5029123;28;20053;-63
2024/01/07 06:30:32;;;;;;;9.15;4.57;;;0.30;99.90;;;;;;5029032;28;20276;-63
2024/01/07 06:32:58;;;;;;;5.27;3.73;;;0.30;99.90;;;;;;5017697;28;20045;-63
2024/01/07 06:35:23;;;;;;;9.53;3.87;;;0.30;99.90;;;;;;5009155;28;20281;-62
2024/01/07 06:37:49;;;;;;;5.60;3.57;;;0.30;99.90;;;;;;5017351;28;20034;-63
2024/01/07 06:40:15;;;;;;;4.68;3.60;;;0.30;99.90;;;;;;5009340;28;20045;-63
2024/01/07 06:42:41;;;;;;;6.40;3.50;;;0.30;99.90;;;;;;5027903;28;20038;-63
2024/01/07 06:45:07;;;;;;;6.50;3.65;;;0.30;99.90;;;;;;5009380;28;20454;-63
2024/01/07 06:47:32;;;;;;;5.07;3.58;;;0.30;99.90;;;;;;5017865;28;20037;-64
2024/01/07 06:49:58;;;;;;;5.57;3.17;;;0.30;99.90;;;;;;5009421;28;20030;-63
2024/01/07 06:52:23;;;;;;;7.17;3.87;;;0.30;99.90;;;;;;5016008;28;20036;-63
2024/01/07 06:54:49;;;;;;;7.80;3.70;;;0.30;99.90;;;;;;5009816;28;20042;-64
2024/01/07 06:57:15;;;;;;;3.50;3.20;;;0.20;99.90;;;;;;5013489;28;20444;-64
2024/01/07 06:59:40;;;;;;;2.87;2.63;;;0.30;99.90;;;;;;5024227;28;20502;-63
2024/01/07 07:02:06;;;;;;;6.30;3.53;;;0.30;99.90;;;;;;5022207;28;20037;-63
2024/01/07 07:04:31;;;;;;;4.40;3.03;;;0.30;99.90;;;;;;5027806;28;20420;-63
2024/01/07 07:06:57;;;;;;;2.23;2.10;;;0.30;99.90;;;;;;5032289;28;20049;-63
2024/01/07 07:09:23;;;;;;;5.87;2.50;;;0.30;99.90;;;;;;5025686;28;20045;-63
2024/01/07 07:11:49;;;;;;;5.18;3.03;;;0.30;99.90;;;;;;5033021;28;20502;-63
2024/01/07 07:14:14;;;;;;;4.80;2.10;;;0.30;99.90;;;;;;5032118;28;20048;-63
2024/01/07 07:16:40;;;;;;;3.90;2.83;;;0.30;99.90;;;;;;5032508;28;20029;-63
2024/01/07 07:19:05;;;;;;;2.83;2.50;;;0.30;99.90;;;;;;5048901;28;20041;-63
2024/01/07 07:21:31;;;;;;;4.33;2.77;;;0.30;99.90;;;;;;5027501;28;20046;-63
2024/01/07 07:23:57;;;;;;;2.00;1.90;;;0.30;99.90;;;;;;5020331;28;20284;-63
2024/01/07 07:26:23;;;;;;;2.55;2.28;;;0.30;99.90;;;;;;5011300;28;20046;-63
2024/01/07 07:28:48;;;;;;;3.85;2.65;;;0.30;99.90;;;;;;5020662;28;20044;-63
2024/01/07 07:31:14;;;;;;;3.90;2.00;;;0.30;99.90;;;;;;5024116;28;20509;-63
2024/01/07 07:33:40;;;;;;;3.40;2.53;;;0.30;99.90;;;;;;5021764;28;20288;-64
2024/01/07 07:36:06;;;;;;;3.38;2.35;;;0.30;99.90;;;;;;5022768;28;20069;-63
2024/01/07 07:38:32;;;;;;;8.07;3.17;;;0.30;99.90;;;;;;5025484;28;20045;-63
2024/01/07 07:40:58;;;;;;;3.63;2.13;;;0.20;99.90;;;;;;5030457;28;20053;-63
2024/01/07 07:43:24;;;;;;;4.22;2.97;;;0.30;99.90;;;;;;5026103;28;20048;-63
2024/01/07 07:45:50;;;;;;;3.70;2.58;;;0.30;99.90;;;;;;5020805;28;20132;-64
2024/01/07 07:48:17;;;;;;;3.22;2.45;;;0.30;99.90;;;;;;5022332;28;20124;-64
2024/01/07 07:50:42;;;;;;;2.40;2.20;;;0.20;99.90;;;;;;5028009;28;20037;-64
2024/01/07 07:53:08;;;;;;;7.07;2.83;;;0.20;99.90;;;;;;5022492;28;20529;-64
2024/01/07 07:55:34;;;;;;;3.83;2.00;;;0.20;99.90;;;;;;5024506;28;20354;-63
2024/01/07 07:57:59;;;;;;;2.30;2.10;;;0.10;99.90;;;;;;5024722;28;20268;-64
2024/01/07 08:00:25;;;;;;;4.00;2.20;;;0.20;99.90;;;;;;5033852;28;20566;-63
2024/01/07 08:02:51;;;;;;;4.53;2.33;;;0.10;99.90;;;;;;5011917;28;20046;-64
2024/01/07 08:05:17;;;;;;;;;;;0.10;99.90;;;;;;5017666;28;20167;-64
2024/01/07 08:07:43;;;;;;;2.47;1.70;;;0.10;99.90;;;;;;5030916;28;20004;-64
2024/01/07 08:10:09;;;;;;;4.73;2.63;;;0.10;99.90;;;;;;5030345;28;20448;-63
2024/01/07 08:12:35;;;;;;;5.07;2.40;;;0.10;99.90;;;;;;5022269;28;20153;-64
2024/01/07 08:15:00;;;;;;;3.53;1.67;;;0.10;99.90;;;;;;5010672;28;20054;-64
2024/01/07 08:17:26;;;;;;;2.03;1.70;;;0.10;99.90;;;;;;5028735;28;20197;-64
2024/01/07 08:19:52;;;;;;;3.10;1.80;;;0.10;99.90;;;;;;5030997;28;20115;-62
2024/01/07 08:22:19;;;;;;;4.10;1.65;;;0.10;99.90;;;;;;5037087;28;20053;-63
2024/01/07 08:24:45;;;;;;;4.07;1.67;;;0.10;99.90;;;;;;5034289;28;20042;-63
2024/01/07 08:27:10;;;;;;;4.33;1.87;;;0.10;99.90;;;;;;5032305;28;20369;-65
2024/01/07 08:29:36;;;;;;;2.43;1.30;;;0.20;99.90;;;;;;5028029;28;20311;-63
2024/01/07 08:32:01;;;;;;;2.90;1.47;;;0.20;99.90;;;;;;5019851;28;20061;-63
2024/01/07 08:34:27;;;;;;;3.50;1.37;;;0.30;99.90;;;;;;5026920;28;20127;-63
2024/01/07 08:36:53;;;;;;;6.33;1.80;;;0.50;99.90;;;;;;5018067;28;20284;-67
2024/01/07 08:39:19;;;;;;;;;;;0.80;99.90;;;;;;5025946;28;20041;-66
2024/01/07 08:41:45;;;;;;;5.03;1.00;;;1.20;99.90;;;;;;5036293;28;19918;-65
2024/01/07 08:44:11;;;;;;;1.80;1.43;;;1.40;99.90;;;;;;5020404;28;20068;-67
2024/01/07 08:46:36;;;;;;;1.73;0.70;;;1.50;99.90;;;;;;5025759;28;20100;-66
2024/01/07 08:49:02;;;;;;;1.10;1.00;;;1.50;99.90;;;;;;5013282;28;20076;-66
2024/01/07 08:51:29;;;;;;;1.20;0.82;;;1.50;99.90;;;;;;5020002;28;20047;-66
2024/01/07 08:53:57;;;;;;;1.55;1.27;;;1.80;99.90;;;;;;5044613;28;20498;-65
2024/01/07 08:56:23;;;;;;;1.77;0.80;;;2.50;99.90;;;;;;5022497;28;20029;-66
2024/01/07 08:58:48;;;;;;;2.17;0.70;;;3.50;99.90;;;;;;5027493;28;20493;-66
2024/01/07 09:01:14;;;;;;;4.07;0.90;;;4.50;99.90;;;;;;5029462;28;20155;-67
2024/01/07 09:03:41;;;;;;;4.63;0.73;;;5.40;99.90;;;;;;5035352;28;20041;-66
2024/01/07 09:06:07;;;;;;;3.92;0.93;;;5.80;99.90;;;;;;5022576;28;20557;-65
2024/01/07 09:08:34;;;;;;;1.70;0.77;;;5.70;99.90;;;;;;5022239;28;20156;-66
2024/01/07 09:11:01;;;;;;;1.10;0.90;;;5.60;99.90;;;;;;5022634;28;20068;-65
2024/01/07 09:13:27;;;;;;;5.47;0.85;;;5.50;99.90;;;;;;5025306;28;20563;-64
2024/01/07 09:15:53;;;;;;;1.35;0.70;;;5.30;99.90;;;;;;5028308;28;20041;-64
2024/01/07 09:18:18;;;;;;;2.07;0.63;;;5.00;99.90;;;;;;5025590;28;20033;-64
2024/01/07 09:20:44;;;;;;;1.27;0.50;;;4.60;99.90;;;;;;5026471;28;20099;-63
2024/01/07 09:23:09;;;;;;;3.00;0.63;;;4.20;99.90;;;;;;5032053;28;20041;-64
2024/01/07 09:25:35;;;;;;;4.10;0.70;;;4.00;99.90;;;;;;5020368;28;20381;-64
2024/01/07 09:28:01;;;;;;;4.53;1.10;;;3.80;99.90;;;;;;5030024;28;20045;-64
2024/01/07 09:30:26;;;;;;;2.83;1.13;;;3.90;99.90;;;;;;5027232;28;20481;-65
2024/01/07 09:32:52;;;;;;;3.33;0.70;;;4.30;99.90;;;;;;5026746;28;20284;-64
2024/01/07 09:35:17;;;;;;;6.03;1.20;;;4.70;99.90;;;;;;5020002;28;20041;-65
2024/01/07 09:37:43;;;;;;;2.60;0.60;;;5.10;99.90;;;;;;5020145;28;20061;-64
2024/01/07 09:40:09;;;;;;;1.03;0.50;;;5.30;99.90;;;;;;5019256;28;20037;-64
2024/01/07 09:42:35;;;;;;;3.47;0.70;;;5.70;99.90;;;;;;5021804;28;20033;-64
2024/01/07 09:45:03;;;;;;;2.63;0.40;;;6.30;99.90;;;;;;5025131;28;20022;-64
2024/01/07 09:47:29;;;;;;;4.63;0.60;;;7.20;99.90;;;;;;5023090;28;20053;-66
2024/01/07 09:49:55;;;;;;;5.20;1.08;;;8.10;99.90;;;;;;5027498;28;20501;-63
2024/01/07 09:52:21;;;;;;;1.38;0.40;;;8.60;99.80;;;;;;5038231;28;20037;-65
2024/01/07 09:54:59;;;;;;;0.83;0.60;;;9.30;99.30;;;;;;5022715;28;20121;-64
2024/01/07 09:57:25;;;;;;;0.88;0.57;;;9.80;98.00;;;;;;5024614;28;20375;-65
2024/01/07 09:59:51;;;;;;;27.92;2.35;;;10.60;98.60;;;;;;5026647;28;20045;-63
2024/01/07 10:02:16;;;;;;;5.43;1.00;;;11.30;97.60;;;;;;5020158;28;20105;-64
2024/01/07 10:04:43;;;;;;;2.13;0.30;;;11.70;95.70;;;;;;5027594;28;20045;-65
2024/01/07 10:07:09;;;;;;;0.75;0.40;;;11.50;93.40;;;;;;5026444;28;20048;-66
2024/01/07 10:09:34;;;;;;;1.80;0.40;;;10.80;92.00;;;;;;5027979;28;20390;-65
2024/01/07 10:12:00;;;;;;;1.40;0.50;;;10.50;93.30;;;;;;5031589;28;20283;-66
2024/01/07 10:14:26;;;;;;;3.10;0.68;;;10.60;94.30;;;;;;5019899;28;20036;-66
2024/01/07 10:16:52;;;;;;;1.55;0.63;;;10.90;93.30;;;;;;5019039;28;20041;-65
2024/01/07 10:19:22;;;;;;;;;;;11.20;92.60;;;;;;5025452;28;20069;-66
2024/01/07 10:22:02;;;;;;;4.25;0.80;;;11.50;92.40;;;;;;5018522;28;19948;-66
2024/01/07 10:24:44;;;;;;;1.15;0.50;;;11.60;92.90;;;;;;5019124;28;20750;-67
2024/01/07 10:27:10;;;;;;;3.65;0.68;;;11.30;90.70;;;;;;5029469;28;20059;-66
2024/01/07 10:29:36;;;;;;;;;;;10.50;90.70;;;;;;5027031;28;20052;-66
2024/01/07 10:32:04;;;;;;;2.53;0.50;;;9.70;90.20;;;;;;5027504;28;20038;-65
2024/01/07 10:34:31;;;;;;;1.52;0.40;;;8.80;90.90;;;;;;5026764;28;20501;-66
2024/01/07 10:36:59;;;;;;;3.40;0.50;;;7.90;91.30;;;;;;5028993;28;20033;-65
2024/01/07 10:39:25;;;;;;;1.80;0.70;;;7.20;92.00;;;;;;5024620;28;20049;-65
2024/01/07 10:41:57;;;;;;;2.65;0.70;;;6.70;92.60;;;;;;5025458;28;20080;-65
2024/01/07 10:44:30;;;;;;;1.33;0.52;;;6.10;92.90;;;;;;5024792;28;20049;-64
2024/01/07 10:46:56;;;;;;;5.82;0.70;;;5.60;93.70;;;;;;5024932;28;20047;-64
2024/01/07 10:49:27;;;;;;;8.43;1.17;;;5.20;94.40;;;;;;5024421;28;20072;-64
2024/01/07 10:52:06;;;;;;;4.75;0.60;;;4.80;95.30;;;;;;5026097;28;20120;-64
2024/01/07 10:54:33;;;;;;;1.15;0.60;;;4.40;96.00;;;;;;5025793;28;20304;-66
2024/01/07 10:57:18;;;;;;;2.15;0.90;;;4.10;96.70;;;;;;5019492;28;20470;-66
2024/01/07 10:59:45;;;;;;;1.83;0.43;;;3.80;97.10;;;;;;5028868;28;20037;-66
2024/01/07 11:02:13;;;;;;;3.63;0.95;;;3.50;97.40;;;;;;5022061;28;20041;-65
2024/01/07 11:05:14;;;;;;;1.65;0.77;;;3.30;98.10;;;;;;5029084;28;20083;-64
2024/01/07 11:07:48;;;;;;;1.85;0.40;;;3.10;98.80;;;;;;5027753;28;20171;-64
2024/01/07 11:10:22;;;;;;;1.25;0.50;;;3.00;99.80;;;;;;5027274;28;20565;-65
2024/01/07 11:13:00;;;;;;;0.88;0.50;;;2.90;99.90;;;;;;5024741;28;20045;-66
2024/01/07 11:15:47;;;;;;;1.63;0.63;;;2.70;99.90;;;;;;5019793;28;20321;-64
2024/01/07 11:18:18;;;;;;;60.35;3.78;;;2.70;99.90;;;;;;5020759;28;20477;-66
2024/01/07 11:20:45;;;;;;;3.63;0.55;;;2.50;99.90;;;;;;5018404;28;20037;-67
2024/01/07 11:23:43;;;;;;;1.45;0.55;;;2.50;99.90;;;;;;5028224;28;20041;-67
2024/01/07 11:26:09;;;;;;;6.10;0.88;;;2.50;99.90;;;;;;5008544;28;20053;-69
2024/01/07 11:28:54;;;;;;;5.18;0.88;;;2.40;99.90;;;;;;5040281;28;20033;-69
2024/01/07 11:31:22;;;;;;;2.30;0.70;;;2.40;99.90;;;;;;5019800;28;20050;-66
2024/01/07 11:33:51;;;;;;;5.75;1.27;;;2.40;99.90;;;;;;5022281;28;20046;-67
2024/01/07 11:36:17;;;;;;;2.58;0.93;;;2.50;99.90;;;;;;5023284;28;20216;-65
2024/01/07 11:38:53;;;;;;;3.03;1.05;;;2.50;99.90;;;;;;5015666;28;20042;-69
2024/01/07 11:41:20;;;;;;;0.90;0.60;;;2.40;99.90;;;;;;5024990;28;20527;-63
2024/01/07 11:43:58;;;;;;;1.83;0.60;;;2.40;99.90;;;;;;5030897;28;20033;-67
2024/01/07 11:46:25;;;;;;;3.17;1.10;;;2.30;99.90;;;;;;5025227;28;20620;-66
2024/01/07 11:48:53;;;;;;;1.20;0.60;;;2.30;99.90;;;;;;5020491;28;20050;-66
2024/01/07 11:51:19;;;;;;;2.28;0.68;;;2.30;99.90;;;;;;5029990;28;20514;-66
2024/01/07 11:53:48;;;;;;;2.58;0.65;;;2.30;99.90;;;;;;5024445;28;20033;-66
2024/01/07 11:56:13;;;;;;;0.90;0.60;;;2.40;99.90;;;;;;5028036;28;20050;-66
2024/01/07 11:58:41;;;;;;;1.60;1.40;;;2.50;99.90;;;;;;5028217;28;20375;-67
2024/01/07 12:01:06;;;;;;;0.88;0.63;;;3.00;99.90;;;;;;5026881;28;20042;-66
2024/01/07 12:03:32;;;;;;;0.77;0.50;;;3.80;99.90;;;;;;5026852;28;20075;-67
2024/01/07 12:05:58;;;;;;;1.90;0.57;;;4.60;99.90;;;;;;5019852;28;20133;-67
2024/01/07 12:08:23;;;;;;;1.37;0.40;;;5.40;99.90;;;;;;5011535;28;20498;-67
2024/01/07 12:10:49;;;;;;;3.90;0.47;;;6.20;99.90;;;;;;5022209;28;20042;-65
2024/01/07 12:13:16;;;;;;;3.83;0.68;;;7.60;99.90;;;;;;5026571;28;20037;-66
2024/01/07 12:15:41;;;;;;;3.97;0.40;;;9.40;97.50;;;;;;5020127;28;20117;-66
2024/01/07 12:18:07;;;;;;;2.20;0.60;;;11.30;96.00;;;;;;5038572;28;20136;-65
2024/01/07 12:20:33;;;;;;;0.63;0.40;;;13.10;93.70;;;;;;5029287;28;20128;-67
2024/01/07 12:23:08;;;;;;;1.75;0.50;;;14.80;92.00;;;;;;5024497;28;20481;-67
2024/01/07 12:25:34;;;;;;;3.90;0.40;;;16.30;88.00;;;;;;5029210;28;20049;-66
2024/01/07 12:28:01;;;;;;;0.80;0.52;;;17.60;84.10;;;;;;5009952;28;20046;-66
2024/01/07 12:30:26;;;;;;;22.50;2.13;;;18.20;77.00;;;;;;5026947;28;20041;-66
2024/01/07 12:32:53;;;;;;;17.95;1.75;;;17.90;74.00;;;;;;5031134;28;20044;-65
2024/01/07 12:35:19;;;;;;;2.20;0.70;;;17.90;72.00;;;;;;5028490;28;20049;-65
2024/01/07 12:37:45;;;;;;;5.55;0.95;;;18.10;70.70;;;;;;5015839;28;20087;-65
2024/01/07 12:40:11;;;;;;;3.22;0.57;;;18.00;71.10;;;;;;5030440;28;20456;-64
2024/01/07 12:42:47;;;;;;;2.05;0.50;;;18.50;69.50;;;;;;5013115;28;20482;-65
2024/01/07 12:45:13;;;;;;;1.23;0.40;;;19.10;68.00;;;;;;5011014;28;20095;-65